createdAt,value
2017-07-23T05:31:42.583Z,2836
2017-07-23T05:32:08.050Z,2960
2017-07-23T05:32:33.864Z,3156
2017-07-23T05:32:59.396Z,3392
2017-07-23T05:33:24.887Z,3608
2017-07-23T05:33:50.403Z,3776
2017-07-23T05:34:15.897Z,3908
2017-07-23T05:34:41.389Z,4060
2017-07-23T05:35:06.921Z,4228
2017-07-23T05:35:32.494Z,4260
2017-07-23T05:35:57.889Z,4132
2017-07-23T05:36:23.352Z,3872
2017-07-23T05:36:48.824Z,3512
2017-07-23T05:37:14.278Z,3128
2017-07-23T05:37:39.739Z,2768
2017-07-23T05:38:05.230Z,2476
2017-07-23T05:38:30.741Z,2272
2017-07-23T05:38:56.230Z,2112
2017-07-23T05:39:21.691Z,2024
2017-07-23T05:39:47.136Z,1964
2017-07-23T05:40:12.571Z,1928
2017-07-23T05:40:38.106Z,1892
2017-07-23T05:41:03.621Z,1880
2017-07-23T05:41:29.201Z,1924
2017-07-23T05:41:54.676Z,2516
2017-07-23T05:42:20.134Z,2276
2017-07-23T05:42:45.610Z,2272
2017-07-23T05:43:11.081Z,3372
2017-07-23T05:43:36.604Z,4440
2017-07-23T05:44:02.116Z,3200
2017-07-23T05:44:27.505Z,3056
2017-07-23T05:44:52.982Z,3404
2017-07-23T05:45:18.423Z,3844
2017-07-23T05:45:43.914Z,2652
2017-07-23T05:46:09.387Z,3432
2017-07-23T05:46:34.867Z,2748
2017-07-23T05:47:00.370Z,2956
2017-07-23T05:47:25.859Z,3872
2017-07-23T05:47:51.424Z,4184
2017-07-23T05:48:16.916Z,4276
2017-07-23T05:48:42.405Z,3720
2017-07-23T05:49:07.899Z,5420
2017-07-23T05:49:33.402Z,2888
2017-07-23T05:49:58.859Z,4540
2017-07-23T05:50:24.345Z,5532
2017-07-23T05:50:49.834Z,5268
2017-07-23T05:51:15.289Z,3980
2017-07-23T05:51:40.772Z,5200
2017-07-23T05:52:06.227Z,5568
2017-07-23T05:52:31.701Z,5556
2017-07-23T05:52:57.181Z,2344
2017-07-23T05:53:22.676Z,3692
2017-07-23T05:53:48.124Z,6500
2017-07-23T05:54:13.601Z,8352
2017-07-23T05:54:39.091Z,10328
2017-07-23T05:55:04.586Z,11984
2017-07-23T05:55:30.067Z,13656
2017-07-23T05:55:55.524Z,14136
2017-07-23T05:56:20.981Z,12808
2017-07-23T05:56:46.504Z,11020
2017-07-23T05:57:12.020Z,9636
2017-07-23T05:57:37.484Z,7036
2017-07-23T05:58:02.970Z,3368
2017-07-23T05:58:28.453Z,2040
2017-07-23T05:58:53.928Z,2164
2017-07-23T05:59:19.425Z,2720
2017-07-23T05:59:45.046Z,5844
2017-07-23T06:00:10.486Z,4516
2017-07-23T06:00:35.962Z,3480
2017-07-23T06:01:01.418Z,3420
2017-07-23T06:01:26.896Z,5148
2017-07-23T06:01:52.405Z,4956
2017-07-23T06:02:17.888Z,4844
2017-07-23T06:02:43.414Z,2432
2017-07-23T06:03:08.870Z,2676
2017-07-23T06:03:34.382Z,5092
2017-07-23T06:03:59.857Z,4832
2017-07-23T06:04:25.345Z,4800
2017-07-23T06:04:50.796Z,4864
2017-07-23T06:05:16.286Z,4800
2017-07-23T06:05:41.797Z,4796
2017-07-23T06:06:07.270Z,4860
2017-07-23T06:06:32.750Z,4884
2017-07-23T06:06:58.233Z,4872
2017-07-23T06:07:23.669Z,4816
2017-07-23T06:07:49.166Z,4800
2017-07-23T06:08:14.670Z,4820
2017-07-23T06:08:40.155Z,4068
2017-07-23T06:09:05.626Z,4748
2017-07-23T06:09:31.117Z,2764
2017-07-23T06:09:56.596Z,3028
2017-07-23T06:10:22.059Z,4596
2017-07-23T06:10:47.527Z,4672
2017-07-23T06:11:13.016Z,5036
2017-07-23T06:11:38.529Z,5032
2017-07-23T06:12:04.011Z,5000
2017-07-23T06:12:29.479Z,5044
2017-07-23T06:12:54.934Z,4948
2017-07-23T06:13:20.403Z,4976
2017-07-23T06:13:45.866Z,5016
2017-07-23T06:14:11.376Z,5024
2017-07-23T06:14:36.832Z,5004
2017-07-23T06:15:02.292Z,4944
2017-07-23T06:15:27.741Z,4860
2017-07-23T06:15:53.204Z,3332
2017-07-23T06:16:18.673Z,4156
2017-07-23T06:16:44.145Z,4984
2017-07-23T06:17:09.582Z,4616
2017-07-23T06:17:35.037Z,4728
2017-07-23T06:18:00.543Z,5336
2017-07-23T06:18:26.030Z,5504
2017-07-23T06:18:51.482Z,5608
2017-07-23T06:19:16.972Z,5176
2017-07-23T06:19:42.472Z,5608
2017-07-23T06:20:07.950Z,5852
2017-07-23T06:21:16.657Z,6436
2017-07-23T06:21:42.131Z,6660
2017-07-23T06:22:07.594Z,6828
2017-07-23T06:22:33.052Z,7040
2017-07-23T06:22:58.534Z,6872
2017-07-23T06:23:23.989Z,7416
2017-07-23T06:23:49.455Z,7356
2017-07-23T06:24:14.969Z,7508
2017-07-23T06:24:40.483Z,7652
2017-07-23T06:25:05.939Z,7972
2017-07-23T06:25:31.431Z,7936
2017-07-23T06:26:56.394Z,4408
2017-07-23T06:27:21.890Z,7028
2017-07-23T06:27:47.364Z,5216
2017-07-23T06:28:12.929Z,7024
2017-07-23T06:28:38.458Z,4908
2017-07-23T06:29:03.950Z,6720
2017-07-23T06:29:29.418Z,5784
2017-07-23T06:29:54.902Z,4932
2017-07-23T06:30:20.391Z,5216
2017-07-23T06:30:45.847Z,4748
2017-07-23T06:31:11.314Z,6816
2017-07-23T06:31:36.808Z,7528
2017-07-23T06:32:02.250Z,5376
2017-07-23T06:32:27.766Z,7184
2017-07-23T06:32:53.279Z,5384
2017-07-23T06:33:18.745Z,6996
2017-07-23T06:33:44.253Z,5060
2017-07-23T06:34:09.734Z,5980
2017-07-23T06:34:35.208Z,4912
2017-07-23T06:35:00.693Z,5848
2017-07-23T06:35:26.212Z,5836
2017-07-23T06:35:51.659Z,5848
2017-07-23T06:36:17.147Z,4448
2017-07-23T06:36:42.613Z,4992
2017-07-23T06:37:08.156Z,4780
2017-07-23T06:37:33.637Z,4424
2017-07-23T06:37:59.179Z,4256
2017-07-23T06:38:24.654Z,4188
2017-07-23T06:38:50.142Z,3960
2017-07-23T06:39:15.629Z,5348
2017-07-23T06:39:41.111Z,5628
2017-07-23T06:40:06.561Z,4228
2017-07-23T06:40:32.059Z,4236
2017-07-23T06:40:57.551Z,4484
2017-07-23T06:41:23.011Z,4212
2017-07-23T06:41:48.521Z,4080
2017-07-23T06:42:13.961Z,4184
2017-07-23T06:42:39.425Z,4100
2017-07-23T06:43:04.892Z,3996
2017-07-23T06:43:30.369Z,4000
2017-07-23T06:43:55.846Z,4032
2017-07-23T06:44:21.306Z,4072
2017-07-23T06:44:46.817Z,4084
2017-07-23T06:45:12.307Z,1960
2017-07-23T06:45:37.802Z,4020
2017-07-23T06:46:03.246Z,3912
2017-07-23T06:46:28.776Z,4044
2017-07-23T06:46:54.267Z,4064
2017-07-23T06:47:19.781Z,4104
2017-07-23T06:47:45.292Z,4060
2017-07-23T06:48:10.697Z,4040
2017-07-23T06:48:36.185Z,4088
2017-07-23T06:49:01.677Z,1912
2017-07-23T06:49:27.147Z,4228
2017-07-23T06:49:52.650Z,4084
2017-07-23T06:50:18.092Z,4024
2017-07-23T06:50:43.563Z,4004
2017-07-23T06:51:09.027Z,4016
2017-07-23T06:51:34.508Z,3760
2017-07-23T06:51:59.955Z,4012
2017-07-23T06:52:25.409Z,3980
2017-07-23T06:53:34.110Z,4084
2017-07-23T06:53:59.561Z,3972
2017-07-23T06:54:25.065Z,2268
2017-07-23T06:54:50.562Z,4128
2017-07-23T06:55:16.018Z,4248
2017-07-23T06:55:41.533Z,4124
2017-07-23T06:56:07.005Z,4000
2017-07-23T06:56:32.467Z,4076
2017-07-23T06:56:57.966Z,4128
2017-07-23T06:57:23.459Z,2060
2017-07-23T06:57:48.938Z,4168
2017-07-23T06:58:14.357Z,4188
2017-07-23T06:58:39.831Z,4112
2017-07-23T06:59:05.330Z,2348
2017-07-23T06:59:30.841Z,4112
2017-07-23T06:59:56.283Z,3008
2017-07-23T07:00:21.768Z,4232
2017-07-23T07:00:47.217Z,4184
2017-07-23T07:01:12.710Z,4228
2017-07-23T07:01:38.140Z,4216
2017-07-23T07:02:03.592Z,4164
2017-07-23T07:02:29.081Z,4504
2017-07-23T07:02:54.586Z,4824
2017-07-23T07:03:20.104Z,4200
2017-07-23T07:03:45.590Z,4068
2017-07-23T07:04:11.105Z,4072
2017-07-23T07:04:36.594Z,4088
2017-07-23T07:05:02.010Z,4040
2017-07-23T07:05:27.466Z,4012
2017-07-23T07:05:52.934Z,4120
2017-07-23T07:06:18.402Z,4144
2017-07-23T07:06:44.255Z,4008
2017-07-23T07:07:09.727Z,4088
2017-07-23T07:07:35.326Z,4128
2017-07-23T07:08:00.768Z,4108
2017-07-23T07:08:26.285Z,4144
2017-07-23T07:08:51.734Z,4072
2017-07-23T07:09:17.461Z,2128
2017-07-23T07:09:42.948Z,2912
2017-07-23T07:10:09.364Z,4336
2017-07-23T07:10:34.691Z,4504
2017-07-23T07:11:00.189Z,4816
2017-07-23T07:11:25.664Z,4576
2017-07-23T07:11:51.128Z,4176
2017-07-23T07:12:16.664Z,4080
2017-07-23T07:12:42.159Z,4124
2017-07-23T07:13:07.627Z,4212
2017-07-23T07:13:33.123Z,4320
2017-07-23T07:13:58.583Z,4180
2017-07-23T07:14:24.063Z,4104
2017-07-23T07:14:49.588Z,2156
2017-07-23T07:15:15.119Z,4068
2017-07-23T07:15:40.561Z,4088
2017-07-23T07:16:05.991Z,2124
2017-07-23T07:16:31.458Z,2068
2017-07-23T07:16:56.926Z,4300
2017-07-23T07:17:22.415Z,4164
2017-07-23T07:17:47.841Z,4276
2017-07-23T07:18:13.356Z,4248
2017-07-23T07:18:38.768Z,3904
2017-07-23T07:19:04.260Z,4956
2017-07-23T07:19:29.743Z,5588
2017-07-23T07:19:55.197Z,3536
2017-07-23T07:20:20.692Z,5384
2017-07-23T07:20:46.199Z,4740
2017-07-23T07:21:11.671Z,2208
2017-07-23T07:21:37.147Z,2160
2017-07-23T07:22:02.616Z,4464
2017-07-23T07:22:28.120Z,4624
2017-07-23T07:22:53.592Z,4784
2017-07-23T07:23:19.046Z,4880
2017-07-23T07:23:44.519Z,6260
2017-07-23T07:24:10.000Z,4904
2017-07-23T07:24:35.483Z,4876
2017-07-23T07:25:00.984Z,5080
2017-07-23T07:25:26.434Z,5512
2017-07-23T07:25:51.921Z,6696
2017-07-23T07:26:17.401Z,5468
2017-07-23T07:26:42.880Z,4700
2017-07-23T07:27:08.349Z,4912
2017-07-23T07:27:33.856Z,5064
2017-07-23T07:27:59.317Z,5904
2017-07-23T07:28:24.800Z,5708
2017-07-23T07:28:50.275Z,5744
2017-07-23T07:29:15.749Z,10428
2017-07-23T07:29:41.239Z,10456
2017-07-23T07:30:06.728Z,7676
2017-07-23T07:30:32.203Z,6196
2017-07-23T07:30:57.678Z,6068
2017-07-23T07:31:23.168Z,6544
2017-07-23T07:31:48.635Z,8268
2017-07-23T07:32:14.089Z,8976
2017-07-23T07:32:39.580Z,8412
2017-07-23T07:33:05.079Z,7048
2017-07-23T07:33:30.547Z,8896
2017-07-23T07:33:56.029Z,9184
2017-07-23T07:34:21.487Z,8116
2017-07-23T07:34:46.950Z,7640
2017-07-23T07:35:12.445Z,8008
2017-07-23T07:35:37.898Z,6888
2017-07-23T07:36:03.373Z,8484
2017-07-23T07:36:28.865Z,10056
2017-07-23T07:36:54.370Z,9704
2017-07-23T07:37:19.827Z,9612
2017-07-23T07:37:45.297Z,8292
2017-07-23T07:38:10.754Z,6248
2017-07-23T07:38:36.226Z,5976
2017-07-23T07:39:01.666Z,6636
2017-07-23T07:39:27.126Z,7152
2017-07-23T07:39:52.592Z,6812
2017-07-23T07:40:18.068Z,6400
2017-07-23T07:40:43.549Z,6380
2017-07-23T07:41:47.156Z,7176
2017-07-23T07:42:12.623Z,7988
2017-07-23T07:42:38.106Z,8444
2017-07-23T07:43:03.576Z,7372
2017-07-23T07:43:29.064Z,8636
2017-07-23T07:43:54.521Z,8096
2017-07-23T07:44:20.075Z,10448
2017-07-23T07:44:45.488Z,11224
2017-07-23T07:45:10.947Z,10732
2017-07-23T07:45:36.487Z,10280
2017-07-23T07:46:02.000Z,10264
2017-07-23T07:46:27.476Z,10528
2017-07-23T07:46:52.973Z,10688
2017-07-23T07:47:18.457Z,10272
2017-07-23T07:47:43.916Z,10564
2017-07-23T07:48:09.375Z,9060
2017-07-23T07:48:34.877Z,11256
2017-07-23T07:49:00.354Z,11056
2017-07-23T07:49:25.852Z,11092
2017-07-23T07:49:51.316Z,10908
2017-07-23T07:50:16.794Z,10424
2017-07-23T07:50:42.254Z,9984
2017-07-23T07:51:07.709Z,8804
2017-07-23T07:51:33.215Z,8260
2017-07-23T07:51:58.661Z,7856
2017-07-23T07:52:24.128Z,7444
2017-07-23T07:52:49.594Z,6824
2017-07-23T07:53:15.099Z,7168
2017-07-23T07:53:40.574Z,7116
2017-07-23T07:54:06.080Z,6384
2017-07-23T07:54:31.525Z,5776
2017-07-23T07:54:57.010Z,6256
2017-07-23T07:55:22.472Z,7072
2017-07-23T07:55:47.928Z,7320
2017-07-23T07:56:13.418Z,6896
2017-07-23T07:56:38.857Z,6128
2017-07-23T07:57:04.311Z,5004
2017-07-23T07:57:29.808Z,4828
2017-07-23T07:57:55.280Z,5392
2017-07-23T07:58:20.793Z,6764
2017-07-23T07:58:46.265Z,7312
2017-07-23T07:59:11.758Z,7324
2017-07-23T07:59:37.274Z,6776
2017-07-23T08:00:02.739Z,6892
2017-07-23T08:00:28.270Z,7328
2017-07-23T08:00:53.734Z,7496
2017-07-23T08:01:19.252Z,7592
2017-07-23T08:01:44.722Z,7280
2017-07-23T08:02:10.196Z,7200
2017-07-23T08:02:35.676Z,7000
2017-07-23T08:03:01.169Z,6792
2017-07-23T08:03:26.653Z,6592
2017-07-23T08:03:52.126Z,6620
2017-07-23T08:04:17.603Z,6448
2017-07-23T08:04:43.108Z,6200
2017-07-23T08:05:08.551Z,5972
2017-07-23T08:05:34.035Z,6092
2017-07-23T08:05:59.492Z,5848
2017-07-23T08:06:24.949Z,5628
2017-07-23T08:06:50.458Z,5544
2017-07-23T08:07:15.925Z,5580
2017-07-23T08:07:41.385Z,5916
2017-07-23T08:08:06.882Z,6256
2017-07-23T08:08:32.357Z,5980
2017-07-23T08:08:57.843Z,6008
2017-07-23T08:09:23.329Z,6588
2017-07-23T08:09:48.830Z,6468
2017-07-23T08:10:14.302Z,6500
2017-07-23T08:10:39.769Z,6292
2017-07-23T08:11:05.277Z,6568
2017-07-23T08:11:30.743Z,6868
2017-07-23T08:11:56.192Z,6968
2017-07-23T08:12:21.713Z,6572
2017-07-23T08:12:47.208Z,6452
2017-07-23T08:13:12.710Z,6032
2017-07-23T08:13:38.191Z,5688
2017-07-23T08:14:03.658Z,5404
2017-07-23T08:14:29.111Z,4780
2017-07-23T08:14:54.581Z,4632
2017-07-23T08:15:20.043Z,4100
2017-07-23T08:15:45.528Z,3956
2017-07-23T08:16:10.992Z,3440
2017-07-23T08:16:36.482Z,3320
2017-07-23T08:17:01.935Z,3176
2017-07-23T08:17:27.462Z,2992
2017-07-23T08:17:52.947Z,3012
2017-07-23T08:18:18.408Z,3220
2017-07-23T08:18:43.880Z,3016
2017-07-23T08:19:09.332Z,2952
2017-07-23T08:19:34.818Z,2976
2017-07-23T08:20:00.289Z,3104
2017-07-23T08:20:25.775Z,3104
2017-07-23T08:20:51.264Z,3192
2017-07-23T08:21:16.747Z,2980
2017-07-23T08:21:42.239Z,2772
2017-07-23T08:22:07.761Z,2504
2017-07-23T08:22:33.219Z,2328
2017-07-23T08:22:58.683Z,2528
2017-07-23T08:23:24.247Z,2508
2017-07-23T08:23:49.756Z,2464
2017-07-23T08:24:15.205Z,2656
2017-07-23T08:24:40.656Z,2548
2017-07-23T08:25:06.108Z,2288
2017-07-23T08:25:31.578Z,2144
2017-07-23T08:25:57.073Z,2084
2017-07-23T08:26:22.544Z,2140
2017-07-23T08:26:48.007Z,2284
2017-07-23T08:27:13.468Z,2388
2017-07-23T08:27:38.944Z,2400
2017-07-23T08:28:04.436Z,2368
2017-07-23T08:28:29.887Z,2212
2017-07-23T08:28:55.351Z,3088
2017-07-23T08:29:20.817Z,3340
2017-07-23T08:29:46.303Z,3360
2017-07-23T08:30:11.760Z,3332
2017-07-23T08:30:37.246Z,3280
2017-07-23T08:31:56.170Z,3188
2017-07-23T08:32:21.646Z,3180
2017-07-23T08:32:47.121Z,3168
2017-07-23T08:33:12.562Z,3148
2017-07-23T08:33:38.031Z,3136
2017-07-23T08:34:03.516Z,3136
2017-07-23T08:34:28.980Z,3132
2017-07-23T08:34:54.446Z,3128
2017-07-23T08:35:19.917Z,3128
2017-07-23T08:35:45.397Z,3136
2017-07-23T08:36:10.898Z,3204
2017-07-23T08:36:36.408Z,3176
2017-07-23T08:37:01.928Z,3112
2017-07-23T08:37:27.408Z,3116
2017-07-23T08:37:52.872Z,3124
2017-07-23T08:38:18.365Z,3124
2017-07-23T08:38:43.843Z,3116
2017-07-23T08:39:09.324Z,3108
2017-07-23T08:39:34.805Z,3108
2017-07-23T08:40:00.279Z,3100
2017-07-23T08:40:25.788Z,3092
2017-07-23T08:40:51.263Z,3096
2017-07-23T08:41:16.748Z,3100
2017-07-23T08:41:42.247Z,3096
2017-07-23T08:42:07.728Z,3112
2017-07-23T08:42:33.239Z,3128
2017-07-23T08:42:58.687Z,3112
2017-07-23T08:43:24.221Z,3108
2017-07-23T08:43:49.736Z,3108
2017-07-23T08:44:15.231Z,3116
2017-07-23T08:44:40.715Z,3108
2017-07-23T08:45:06.177Z,3120
2017-07-23T08:45:31.647Z,3208
2017-07-23T08:45:57.116Z,4032
2017-07-23T08:46:22.597Z,3284
2017-07-23T08:46:48.096Z,2192
2017-07-23T08:47:13.621Z,2088
2017-07-23T08:47:39.107Z,1904
2017-07-23T08:48:04.567Z,1860
2017-07-23T08:48:30.038Z,2112
2017-07-23T08:48:55.529Z,2432
2017-07-23T08:49:20.985Z,3260
2017-07-23T08:49:46.466Z,4640
2017-07-23T08:50:11.947Z,5676
2017-07-23T08:50:37.437Z,5428
2017-07-23T08:51:02.923Z,3984
2017-07-23T08:51:28.403Z,4516
2017-07-23T08:51:53.858Z,4252
2017-07-23T08:52:19.353Z,4696
2017-07-23T08:52:44.826Z,4028
2017-07-23T08:53:10.325Z,4668
2017-07-23T08:53:35.816Z,4332
2017-07-23T08:54:01.312Z,3656
2017-07-23T08:54:26.782Z,3232
2017-07-23T08:54:52.275Z,2980
2017-07-23T08:55:17.789Z,3124
2017-07-23T08:55:43.303Z,3492
2017-07-23T08:56:08.792Z,3992
2017-07-23T08:56:34.263Z,4136
2017-07-23T08:56:59.754Z,4796
2017-07-23T08:57:25.236Z,4656
2017-07-23T08:57:50.711Z,4784
2017-07-23T08:58:16.193Z,5020
2017-07-23T08:58:41.672Z,4480
2017-07-23T08:59:07.143Z,4432
2017-07-23T08:59:32.643Z,5476
2017-07-23T08:59:58.118Z,6644
2017-07-23T09:00:23.606Z,7456
2017-07-23T09:00:49.091Z,8212
2017-07-23T09:01:14.606Z,7944
2017-07-23T09:01:40.107Z,7796
2017-07-23T09:02:05.573Z,7520
2017-07-23T09:02:31.010Z,6516
2017-07-23T09:02:56.495Z,6644
2017-07-23T09:03:21.991Z,5208
2017-07-23T09:03:47.494Z,4852
2017-07-23T09:04:12.988Z,4532
2017-07-23T09:04:38.461Z,4148
2017-07-23T09:05:03.993Z,3928
2017-07-23T09:05:29.458Z,3748
2017-07-23T09:05:54.941Z,3496
2017-07-23T09:06:20.479Z,3128
2017-07-23T09:06:45.899Z,2804
2017-07-23T09:07:11.448Z,2792
2017-07-23T09:07:36.921Z,2952
2017-07-23T09:08:02.372Z,3004
2017-07-23T09:08:27.863Z,3036
2017-07-23T09:08:53.348Z,3140
2017-07-23T09:09:18.796Z,3816
2017-07-23T09:09:44.280Z,5896
2017-07-23T09:10:09.770Z,5692
2017-07-23T09:10:35.243Z,7364
2017-07-23T09:11:00.718Z,7448
2017-07-23T09:11:26.222Z,6756
2017-07-23T09:11:51.702Z,4708
2017-07-23T09:12:17.193Z,4936
2017-07-23T09:12:42.643Z,4200
2017-07-23T09:13:08.112Z,2788
2017-07-23T09:13:33.597Z,2548
2017-07-23T09:13:59.048Z,2528
2017-07-23T09:14:24.521Z,2572
2017-07-23T09:14:50.039Z,2636
2017-07-23T09:15:15.506Z,2720
2017-07-23T09:15:40.954Z,2912
2017-07-23T09:16:06.415Z,3148
2017-07-23T09:16:31.931Z,3164
2017-07-23T09:16:57.405Z,3160
2017-07-23T09:17:22.875Z,3196
2017-07-23T09:17:48.376Z,3120
2017-07-23T09:18:13.886Z,3428
2017-07-23T09:18:39.406Z,4148
2017-07-23T09:19:04.859Z,4388
2017-07-23T09:19:30.342Z,4692
2017-07-23T09:19:55.789Z,5576
2017-07-23T09:20:21.334Z,5436
2017-07-23T09:20:46.800Z,4996
2017-07-23T09:21:12.266Z,4460
2017-07-23T09:21:37.727Z,3800
2017-07-23T09:22:03.211Z,3432
2017-07-23T09:22:28.688Z,3132
2017-07-23T09:22:54.184Z,2704
2017-07-23T09:23:19.643Z,2356
2017-07-23T09:23:45.140Z,2256
2017-07-23T09:24:10.610Z,2456
2017-07-23T09:24:36.083Z,2956
2017-07-23T09:25:01.581Z,3312
2017-07-23T09:25:27.034Z,3296
2017-07-23T09:25:52.526Z,3328
2017-07-23T09:26:18.026Z,4256
2017-07-23T09:26:43.508Z,3792
2017-07-23T09:27:08.999Z,3556
2017-07-23T09:27:34.442Z,3380
2017-07-23T09:27:59.946Z,3216
2017-07-23T09:28:25.414Z,3156
2017-07-23T09:28:50.904Z,3128
2017-07-23T09:29:16.378Z,3132
2017-07-23T09:29:41.848Z,3140
2017-07-23T09:30:07.322Z,3160
2017-07-23T09:30:32.799Z,3148
2017-07-23T09:30:58.273Z,3188
2017-07-23T09:31:23.760Z,3164
2017-07-23T09:31:49.274Z,3212
2017-07-23T09:32:14.767Z,3160
2017-07-23T09:32:40.240Z,2224
2017-07-23T09:33:05.755Z,2156
2017-07-23T09:33:31.204Z,2088
2017-07-23T09:33:56.738Z,1988
2017-07-23T09:34:22.174Z,1964
2017-07-23T09:34:47.655Z,1904
2017-07-23T09:35:13.118Z,2140
2017-07-23T09:35:38.605Z,2540
2017-07-23T09:36:04.090Z,2920
2017-07-23T09:36:29.600Z,3064
2017-07-23T09:36:55.072Z,2560
2017-07-23T09:37:20.530Z,2388
2017-07-23T09:37:46.011Z,2520
2017-07-23T09:38:11.536Z,2840
2017-07-23T09:38:37.011Z,2864
2017-07-23T09:39:02.502Z,2460
2017-07-23T09:39:27.965Z,1904
2017-07-23T09:39:53.436Z,1684
2017-07-23T09:40:18.912Z,1868
2017-07-23T09:40:44.409Z,2164
2017-07-23T09:41:09.892Z,2308
2017-07-23T09:41:35.361Z,2244
2017-07-23T09:42:00.825Z,2080
2017-07-23T09:42:26.317Z,2020
2017-07-23T09:42:51.823Z,2188
2017-07-23T09:43:17.326Z,2424
2017-07-23T09:43:42.763Z,2608
2017-07-23T09:44:08.216Z,3304
2017-07-23T09:44:33.654Z,4188
2017-07-23T09:44:59.125Z,4680
2017-07-23T09:45:24.594Z,4980
2017-07-23T09:45:50.108Z,4988
2017-07-23T09:46:15.561Z,4844
2017-07-23T09:46:41.022Z,4968
2017-07-23T09:47:06.470Z,4936
2017-07-23T09:47:31.997Z,5412
2017-07-23T09:47:57.463Z,6192
2017-07-23T09:48:22.927Z,6984
2017-07-23T09:48:48.418Z,7500
2017-07-23T09:49:13.874Z,7748
2017-07-23T09:49:39.364Z,7832
2017-07-23T09:50:04.847Z,7324
2017-07-23T09:50:30.317Z,7080
2017-07-23T09:50:55.802Z,6648
2017-07-23T09:51:21.281Z,6120
2017-07-23T09:51:46.745Z,5752
2017-07-23T09:52:12.217Z,5468
2017-07-23T09:52:37.697Z,5208
2017-07-23T09:53:03.167Z,5032
2017-07-23T09:53:28.635Z,4900
2017-07-23T09:53:54.125Z,4888
2017-07-23T09:54:19.593Z,4932
2017-07-23T09:54:45.059Z,4920
2017-07-23T09:55:10.556Z,4796
2017-07-23T09:55:36.023Z,4576
2017-07-23T09:56:01.482Z,4372
2017-07-23T09:56:26.982Z,4300
2017-07-23T09:56:52.494Z,4244
2017-07-23T09:57:17.949Z,4080
2017-07-23T09:57:43.458Z,3936
2017-07-23T09:58:08.938Z,3752
2017-07-23T09:58:34.444Z,3548
2017-07-23T09:58:59.917Z,3384
2017-07-23T09:59:25.395Z,3276
2017-07-23T09:59:50.854Z,3064
2017-07-23T10:00:16.348Z,2992
2017-07-23T10:00:41.864Z,3116
2017-07-23T10:01:07.332Z,3176
2017-07-23T10:01:32.814Z,3204
2017-07-23T10:01:58.303Z,3228
2017-07-23T10:02:23.792Z,3376
2017-07-23T10:02:49.287Z,3588
2017-07-23T10:04:13.243Z,3716
2017-07-23T10:04:38.725Z,3652
2017-07-23T10:05:04.172Z,3560
2017-07-23T10:05:29.625Z,3344
2017-07-23T10:05:55.087Z,3140
2017-07-23T10:06:20.532Z,3388
2017-07-23T10:06:45.999Z,3780
2017-07-23T10:07:11.475Z,3980
2017-07-23T10:07:36.926Z,3796
2017-07-23T10:08:02.397Z,3608
2017-07-23T10:08:27.852Z,3332
2017-07-23T10:08:53.313Z,3168
2017-07-23T10:09:18.805Z,3180
2017-07-23T10:09:44.287Z,3320
2017-07-23T10:10:09.748Z,3704
2017-07-23T10:10:35.230Z,4224
2017-07-23T10:11:00.704Z,5788
2017-07-23T10:11:26.173Z,7464
2017-07-23T10:11:51.643Z,8116
2017-07-23T10:12:17.123Z,8212
2017-07-23T10:12:42.621Z,8292
2017-07-23T10:13:08.066Z,8276
2017-07-23T10:13:33.546Z,8184
2017-07-23T10:13:59.040Z,7992
2017-07-23T10:14:24.503Z,7868
2017-07-23T10:14:49.972Z,7988
2017-07-23T10:15:15.446Z,7112
2017-07-23T10:15:40.958Z,6796
2017-07-23T10:16:06.411Z,6440
2017-07-23T10:16:31.870Z,5828
2017-07-23T10:16:57.347Z,5516
2017-07-23T10:17:22.815Z,5348
2017-07-23T10:17:48.309Z,5260
2017-07-23T10:18:13.776Z,5184
2017-07-23T10:18:39.303Z,4964
2017-07-23T10:19:04.799Z,4672
2017-07-23T10:19:30.273Z,4276
2017-07-23T10:19:55.753Z,3816
2017-07-23T10:20:21.251Z,3320
2017-07-23T10:20:46.713Z,2896
2017-07-23T10:21:12.189Z,2476
2017-07-23T10:21:37.682Z,2076
2017-07-23T10:22:03.157Z,1696
2017-07-23T10:22:28.643Z,1428
2017-07-23T10:23:52.613Z,840
2017-07-23T10:24:18.090Z,912
2017-07-23T10:24:43.579Z,1160
2017-07-23T10:25:09.047Z,1664
2017-07-23T10:25:34.536Z,2356
2017-07-23T10:26:00.029Z,2988
2017-07-23T10:26:25.478Z,3500
2017-07-23T10:26:50.965Z,3992
2017-07-23T10:27:16.441Z,4376
2017-07-23T10:27:41.925Z,4568
2017-07-23T10:28:07.391Z,4676
2017-07-23T10:28:32.911Z,4764
2017-07-23T10:28:58.381Z,4764
2017-07-23T10:29:23.868Z,4832
2017-07-23T10:29:49.342Z,4784
2017-07-23T10:30:14.806Z,4620
2017-07-23T10:30:40.262Z,4364
2017-07-23T10:31:05.753Z,4032
2017-07-23T10:31:31.221Z,3708
2017-07-23T10:31:56.674Z,3412
2017-07-23T10:32:22.161Z,3152
2017-07-23T10:32:47.610Z,2992
2017-07-23T10:33:13.105Z,2816
2017-07-23T10:33:38.590Z,2724
2017-07-23T10:34:04.052Z,2724
2017-07-23T10:34:29.577Z,2768
2017-07-23T10:34:55.072Z,2824
2017-07-23T10:35:20.539Z,2860
2017-07-23T10:35:46.013Z,2884
2017-07-23T10:36:11.496Z,2908
2017-07-23T10:36:36.986Z,2948
2017-07-23T10:37:02.469Z,3004
2017-07-23T10:37:27.944Z,3100
2017-07-23T10:37:53.414Z,3164
2017-07-23T10:38:18.889Z,3212
2017-07-23T10:38:44.357Z,3368
2017-07-23T10:39:09.853Z,3432
2017-07-23T10:39:35.343Z,3488
2017-07-23T10:40:00.805Z,3560
2017-07-23T10:40:26.310Z,3668
2017-07-23T10:40:51.815Z,3860
2017-07-23T10:41:17.302Z,4100
2017-07-23T10:41:42.788Z,4312
2017-07-23T10:42:08.287Z,4500
2017-07-23T10:42:33.722Z,4668
2017-07-23T10:42:59.186Z,4772
2017-07-23T10:43:24.654Z,4768
2017-07-23T10:43:50.119Z,4776
2017-07-23T10:44:15.584Z,4932
2017-07-23T10:44:41.074Z,5052
2017-07-23T10:45:06.543Z,5220
2017-07-23T10:45:32.022Z,5516
2017-07-23T10:45:57.501Z,5872
2017-07-23T10:46:22.965Z,6244
2017-07-23T10:47:31.689Z,7508
2017-07-23T10:47:57.172Z,8172
2017-07-23T10:48:22.654Z,8616
2017-07-23T10:48:48.128Z,8796
2017-07-23T10:49:13.601Z,8928
2017-07-23T10:49:39.089Z,9000
2017-07-23T10:50:04.569Z,8740
2017-07-23T10:50:30.029Z,8176
2017-07-23T10:50:55.508Z,7484
2017-07-23T10:51:20.982Z,6596
2017-07-23T10:51:46.481Z,5852
2017-07-23T10:52:11.967Z,5440
2017-07-23T10:52:37.422Z,5108
2017-07-23T10:53:02.875Z,4768
2017-07-23T10:53:28.364Z,4532
2017-07-23T10:53:53.852Z,4448
2017-07-23T10:54:19.279Z,4032
2017-07-23T10:54:44.745Z,3420
2017-07-23T10:55:10.274Z,2720
2017-07-23T10:55:35.727Z,2048
2017-07-23T10:56:01.231Z,1560
2017-07-23T10:56:26.701Z,1240
2017-07-23T10:56:52.161Z,1084
2017-07-23T10:57:17.814Z,980
2017-07-23T10:57:43.276Z,940
2017-07-23T10:58:08.726Z,940
2017-07-23T10:58:34.216Z,1076
2017-07-23T10:58:59.668Z,1136
2017-07-23T10:59:25.158Z,1172
2017-07-23T10:59:50.632Z,1256
2017-07-23T11:00:16.082Z,1368
2017-07-23T11:00:41.594Z,1484
2017-07-23T11:01:07.013Z,1568
2017-07-23T11:01:32.516Z,1824
2017-07-23T11:01:57.969Z,2120
2017-07-23T11:02:23.433Z,2456
2017-07-23T11:02:48.884Z,2904
2017-07-23T11:03:14.342Z,3424
2017-07-23T11:03:39.822Z,4088
2017-07-23T11:04:05.289Z,4640
2017-07-23T11:04:30.724Z,5332
2017-07-23T11:04:56.186Z,5844
2017-07-23T11:05:21.670Z,6060
2017-07-23T11:05:47.151Z,5940
2017-07-23T11:06:12.587Z,5604
2017-07-23T11:06:38.066Z,5340
2017-07-23T11:07:03.505Z,4904
2017-07-23T11:07:28.961Z,4204
2017-07-23T11:07:54.442Z,3992
2017-07-23T11:08:19.935Z,3936
2017-07-23T11:08:45.391Z,4456
2017-07-23T11:09:10.860Z,4480
2017-07-23T11:09:36.333Z,4408
2017-07-23T11:10:01.791Z,4484
2017-07-23T11:10:27.248Z,4468
2017-07-23T11:10:52.706Z,4524
2017-07-23T11:11:18.197Z,4988
2017-07-23T11:11:43.669Z,5352
2017-07-23T11:12:09.127Z,5588
2017-07-23T11:12:34.630Z,5584
2017-07-23T11:13:00.103Z,5404
2017-07-23T11:13:25.560Z,5072
2017-07-23T11:13:51.031Z,4848
2017-07-23T11:14:16.495Z,5044
2017-07-23T11:14:41.956Z,4772
2017-07-23T11:15:07.384Z,4544
2017-07-23T11:15:32.836Z,4284
2017-07-23T11:15:58.301Z,3676
2017-07-23T11:16:23.737Z,3060
2017-07-23T11:16:49.183Z,2676